Time;durP1;ratioP1;P1;durP2;ratioP2;P2;SDS_P1;SDS_P2;PMS_P1;PMS_P2;Temp;Humidity;BMP_temperature;BMP_pressure;BME280_temperature;BME280_humidity;BME280_pressure;Samples;Min_cycle;Max_cycle;Signal;HPM_P1;HPM_P2
2023/08/08 00:01:07;;;;;;;6.72;2.72;;;;;;;23.51;57.37;98668.31;5027756;28;20037;-54
2023/08/08 00:03:34;;;;;;;3.95;2.63;;;;;;;23.74;57.55;98698.63;5020461;28;20079;-48
2023/08/08 00:06:00;;;;;;;3.33;2.65;;;;;;;23.71;57.66;98690.97;5024425;28;20041;-48
2023/08/08 00:08:26;;;;;;;5.35;2.80;;;;;;;23.67;57.78;98678.16;5027884;28;20033;-48
2023/08/08 00:10:52;;;;;;;5.10;3.30;;;;;;;23.66;57.95;98684.50;5026362;28;20041;-47
2023/08/08 00:13:18;;;;;;;4.05;2.97;;;;;;;23.54;58.05;98662.72;5019187;28;20041;-50
2023/08/08 00:15:44;;;;;;;3.28;2.22;;;;;;;23.63;58.09;98689.13;5017684;28;20045;-51
2023/08/08 00:18:10;;;;;;;3.97;2.47;;;;;;;23.56;58.07;98681.94;5026549;28;20489;-49
2023/08/08 00:20:35;;;;;;;14.43;2.75;;;;;;;23.53;58.27;98685.75;5019469;28;20042;-48
2023/08/08 00:23:01;;;;;;;4.10;2.90;;;;;;;23.51;58.36;98682.41;5007790;28;20072;-51
2023/08/08 00:25:27;;;;;;;5.95;3.17;;;;;;;23.46;58.37;98681.22;5030927;28;20072;-52
2023/08/08 00:27:53;;;;;;;2.67;2.47;;;;;;;23.40;58.63;98665.91;5022580;28;20457;-50
2023/08/08 00:30:19;;;;;;;5.60;3.13;;;;;;;23.45;58.75;98682.19;5018131;28;20125;-51
2023/08/08 00:32:45;;;;;;;6.25;3.17;;;;;;;23.29;58.88;98642.34;5018172;28;20538;-50
2023/08/08 00:35:11;;;;;;;3.70;2.75;;;;;;;23.45;59.02;98675.09;5023731;28;20134;-50
2023/08/08 00:37:37;;;;;;;5.40;2.55;;;;;;;23.45;58.88;98664.47;5027095;28;20136;-47
2023/08/08 00:40:03;;;;;;;3.50;2.70;;;;;;;23.46;58.79;98663.50;5018621;28;20064;-49
2023/08/08 00:42:29;;;;;;;5.35;3.05;;;;;;;23.45;58.71;98648.56;5017716;28;20072;-49
2023/08/08 00:45:01;;;;;;;3.10;2.75;;;;;;;23.42;58.70;98656.81;5026288;28;20103;-50
2023/08/08 00:47:32;;;;;;;6.10;3.10;;;;;;;23.44;58.89;98654.00;5019516;28;20119;-48
2023/08/08 00:49:59;;;;;;;4.65;3.13;;;;;;;23.44;58.95;98646.91;5026291;28;20589;-49
2023/08/08 00:52:25;;;;;;;3.35;2.50;;;;;;;23.44;58.88;98638.94;5019803;28;20429;-49
2023/08/08 00:54:52;;;;;;;4.13;3.13;;;;;;;23.31;58.95;98625.25;5024986;28;20037;-50
2023/08/08 00:57:20;;;;;;;3.67;2.75;;;;;;;23.43;58.99;98637.25;5024181;28;20045;-48
2023/08/08 00:59:46;;;;;;;3.47;3.17;;;;;;;23.48;59.12;98644.78;5008747;28;20041;-50
2023/08/08 01:02:14;;;;;;;7.68;3.30;;;;;;;23.36;59.21;98622.97;5026060;28;20052;-48
2023/08/08 01:04:40;;;;;;;4.50;3.17;;;;;;;23.53;59.16;98642.47;5028317;28;20066;-49
2023/08/08 01:07:15;;;;;;;4.47;2.90;;;;;;;23.52;59.09;98652.25;5027687;28;20056;-47
2023/08/08 01:09:45;;;;;;;5.13;3.13;;;;;;;23.52;58.99;98632.84;5027496;28;20044;-52
2023/08/08 01:12:13;;;;;;;8.43;3.15;;;;;;;23.53;59.12;98634.50;5046942;28;20698;-47
2023/08/08 01:14:40;;;;;;;6.40;2.88;;;;;;;23.52;59.05;98625.72;5022982;28;20036;-48
2023/08/08 01:17:06;;;;;;;5.28;2.75;;;;;;;23.51;58.91;98626.69;5029190;28;20056;-48
2023/08/08 01:19:34;;;;;;;3.78;3.00;;;;;;;23.53;58.87;98634.50;4995530;28;20417;-50
2023/08/08 01:22:06;;;;;;;13.85;3.13;;;;;;;23.39;59.19;98595.31;5053364;28;20038;-49
2023/08/08 01:24:36;;;;;;;4.75;3.03;;;;;;;23.46;59.07;98613.09;5020342;28;20092;-50
2023/08/08 01:27:03;;;;;;;5.75;3.33;;;;;;;23.48;59.16;98608.47;5012441;28;20048;-48
2023/08/08 01:29:29;;;;;;;3.38;2.97;;;;;;;23.39;58.95;98588.19;5007888;28;20071;-51
2023/08/08 01:31:55;;;;;;;4.00;2.90;;;;;;;23.37;59.05;98613.19;5028514;28;20049;-47
2023/08/08 01:34:21;;;;;;;3.78;2.83;;;;;;;23.32;59.33;98612.84;5026851;28;20044;-47
2023/08/08 01:36:54;;;;;;;8.43;3.08;;;;;;;23.27;59.86;98608.00;5029335;28;20530;-49
2023/08/08 01:39:26;;;;;;;3.13;2.83;;;;;;;23.24;59.77;98618.91;5029538;28;20076;-48
2023/08/08 01:41:54;;;;;;;3.50;2.70;;;;;;;23.09;59.89;98594.81;5028261;28;20037;-49
2023/08/08 01:44:21;;;;;;;6.57;2.80;;;;;;;23.22;59.84;98607.66;5026310;28;20204;-52
2023/08/08 01:46:47;;;;;;;6.53;2.60;;;;;;;23.09;60.22;98594.81;5028985;28;20280;-47
2023/08/08 01:49:13;;;;;;;5.22;2.75;;;;;;;23.28;59.94;98617.63;5029496;28;20499;-51
2023/08/08 01:51:39;;;;;;;4.38;2.90;;;;;;;23.11;59.58;98587.56;5023720;28;20045;-49
2023/08/08 01:54:08;;;;;;;3.55;2.75;;;;;;;23.30;59.67;98602.38;5025687;28;20088;-51
2023/08/08 01:56:34;;;;;;;4.50;2.78;;;;;;;23.31;59.50;98612.00;5028392;28;20064;-54
2023/08/08 01:59:01;;;;;;;6.05;3.05;;;;;;;23.34;59.15;98608.22;5028179;28;20492;-54
2023/08/08 02:01:26;;;;;;;4.20;2.53;;;;;;;23.34;58.51;98614.34;5028951;28;20441;-49
2023/08/08 02:03:52;;;;;;;5.88;2.28;;;;;;;23.09;58.39;98586.03;5028745;28;20064;-54
2023/08/08 02:06:18;;;;;;;4.10;3.00;;;;;;;23.34;58.12;98617.00;5029827;28;20107;-48
2023/08/08 02:08:45;;;;;;;6.45;2.60;;;;;;;23.38;58.13;98621.00;5025358;28;20092;-51
2023/08/08 02:11:11;;;;;;;4.85;2.60;;;;;;;23.41;58.20;98622.47;5026897;28;20056;-52
2023/08/08 02:13:37;;;;;;;8.05;2.70;;;;;;;23.39;58.18;98632.44;5025393;28;20040;-51
2023/08/08 02:16:04;;;;;;;8.82;3.05;;;;;;;23.33;58.10;98643.69;5023213;28;20108;-50
2023/08/08 02:18:30;;;;;;;2.97;2.63;;;;;;;23.16;58.06;98611.78;5024664;28;20099;-49
2023/08/08 02:20:56;;;;;;;10.35;3.30;;;;;;;23.26;58.21;98634.69;5020759;28;20045;-49
2023/08/08 02:23:22;;;;;;;5.03;3.05;;;;;;;23.08;58.69;98610.91;5028344;28;20041;-49
2023/08/08 02:25:48;;;;;;;4.15;2.90;;;;;;;23.18;59.19;98631.03;5021317;28;20416;-46
2023/08/08 02:28:13;;;;;;;3.22;2.92;;;;;;;22.90;59.29;98595.06;5009799;28;20068;-47
2023/08/08 02:30:39;;;;;;;3.13;2.55;;;;;;;23.13;59.11;98643.09;5026791;28;20504;-49
2023/08/08 02:33:05;;;;;;;6.07;2.72;;;;;;;23.03;58.92;98621.97;5028234;28;20139;-51
2023/08/08 02:35:31;;;;;;;5.90;3.40;;;;;;;23.03;58.87;98608.69;5028161;28;20405;-48
2023/08/08 02:37:57;;;;;;;4.43;2.80;;;;;;;23.18;59.05;98638.13;5008528;28;20124;-49
2023/08/08 02:40:23;;;;;;;6.95;2.88;;;;;;;23.13;58.89;98627.19;5021668;28;20489;-51
2023/08/08 02:42:50;;;;;;;3.55;2.75;;;;;;;23.06;59.52;98618.19;5028147;28;20045;-50
2023/08/08 02:45:16;;;;;;;3.67;2.88;;;;;;;22.99;60.11;98617.97;5021192;28;20049;-50
2023/08/08 02:47:42;;;;;;;9.05;3.20;;;;;;;23.00;60.99;98629.41;5011439;28;20045;-48
2023/08/08 02:50:08;;;;;;;4.35;3.20;;;;;;;22.82;61.11;98596.84;5027813;28;20559;-52
2023/08/08 02:52:34;;;;;;;7.47;3.53;;;;;;;22.90;61.21;98621.56;5020591;28;20046;-47
2023/08/08 02:55:02;;;;;;;5.13;3.00;;;;;;;22.87;61.51;98613.09;5027692;28;20040;-50
2023/08/08 02:57:30;;;;;;;9.43;3.08;;;;;;;22.79;61.52;98597.97;5027703;28;20056;-48
2023/08/08 02:59:55;;;;;;;4.25;3.30;;;;;;;22.87;61.28;98624.53;5027029;28;20041;-47
2023/08/08 03:02:22;;;;;;;4.10;3.08;;;;;;;22.76;61.40;98601.78;5031160;28;20782;-45
2023/08/08 03:04:49;;;;;;;3.67;2.47;;;;;;;22.98;61.38;98634.03;5007493;28;20053;-47
2023/08/08 03:07:15;;;;;;;4.15;3.38;;;;;;;22.98;61.19;98624.25;5018917;28;20047;-50
2023/08/08 03:09:41;;;;;;;6.65;2.78;;;;;;;23.02;60.98;98632.75;5020726;28;20041;-48
2023/08/08 03:12:09;;;;;;;3.73;3.10;;;;;;;23.05;60.90;98630.59;5049750;28;20073;-48
2023/08/08 03:14:37;;;;;;;5.93;3.50;;;;;;;23.11;60.76;98634.44;5026883;28;20037;-47
2023/08/08 03:17:04;;;;;;;5.18;3.50;;;;;;;23.13;60.87;98622.69;5035731;28;20473;-48
2023/08/08 03:19:31;;;;;;;5.03;2.90;;;;;;;23.28;60.73;98630.06;5022978;28;20049;-47
2023/08/08 03:21:59;;;;;;;4.70;3.22;;;;;;;23.36;60.03;98632.75;5011145;28;20045;-47
2023/08/08 03:24:25;;;;;;;4.50;3.03;;;;;;;23.39;59.71;98635.94;5025503;28;20544;-50
2023/08/08 03:26:51;;;;;;;7.65;3.20;;;;;;;23.47;59.35;98632.50;5037256;28;20567;-50
2023/08/08 03:29:18;;;;;;;5.15;3.00;;;;;;;23.36;59.50;98614.16;5025866;28;20140;-53
2023/08/08 03:31:47;;;;;;;9.38;4.30;;;;;;;23.52;59.93;98635.50;5048716;28;20524;-50
2023/08/08 03:34:13;;;;;;;4.82;2.92;;;;;;;23.53;60.25;98640.66;5024203;28;20068;-49
2023/08/08 03:36:41;;;;;;;4.13;2.92;;;;;;;23.59;60.00;98642.66;5022740;28;20057;-50
2023/08/08 03:39:08;;;;;;;5.15;3.53;;;;;;;23.34;59.69;98594.94;5005113;28;20038;-47
2023/08/08 03:41:34;;;;;;;4.53;2.92;;;;;;;23.59;59.29;98642.66;5019534;28;20052;-51
2023/08/08 03:44:02;;;;;;;6.90;3.30;;;;;;;23.56;59.01;98636.84;5010436;28;20682;-52
2023/08/08 03:46:29;;;;;;;9.63;3.42;;;;;;;23.53;58.88;98642.47;5021110;28;20187;-55
2023/08/08 03:48:55;;;;;;;8.40;3.47;;;;;;;23.66;59.16;98650.00;5027074;28;20037;-53
2023/08/08 03:51:21;;;;;;;8.38;4.18;;;;;;;23.74;59.17;98650.00;5026718;28;20034;-53
2023/08/08 03:53:48;;;;;;;7.88;3.65;;;;;;;23.81;58.92;98653.69;5027088;28;20051;-50
2023/08/08 03:56:13;;;;;;;5.00;3.70;;;;;;;23.88;58.39;98641.41;5009533;28;20033;-52
2023/08/08 03:58:40;;;;;;;6.55;3.63;;;;;;;23.70;58.30;98620.31;5023956;28;20071;-53
2023/08/08 04:01:06;;;;;;;5.60;3.10;;;;;;;23.91;58.03;98655.22;5026272;28;20111;-53
2023/08/08 04:03:32;;;;;;;6.25;3.30;;;;;;;23.98;57.56;98656.22;5026425;28;20053;-54
2023/08/08 04:05:57;;;;;;;3.88;3.42;;;;;;;24.03;57.30;98661.88;5026756;28;20540;-53
2023/08/08 04:08:23;;;;;;;7.75;3.53;;;;;;;24.14;57.38;98665.19;5028140;28;20106;-54
2023/08/08 04:10:49;;;;;;;6.88;3.13;;;;;;;24.21;57.23;98663.59;5024689;28;20076;-55
2023/08/08 04:13:15;;;;;;;4.97;3.03;;;;;;;24.20;56.77;98651.31;5025903;28;20055;-54
2023/08/08 04:15:41;;;;;;;5.55;3.67;;;;;;;24.13;56.42;98658.25;5020701;28;20699;-54
2023/08/08 04:18:07;;;;;;;8.00;3.33;;;;;;;24.18;56.62;98666.59;5025845;28;20095;-52
2023/08/08 04:20:34;;;;;;;4.65;3.30;;;;;;;24.10;56.46;98664.72;5025937;28;20087;-52
2023/08/08 04:23:00;;;;;;;5.55;3.33;;;;;;;24.11;56.75;98663.72;5026369;28;20045;-52
2023/08/08 04:25:27;;;;;;;5.10;3.33;;;;;;;24.12;56.75;98660.06;5008135;28;21134;-51
2023/08/08 04:27:53;;;;;;;8.68;3.60;;;;;;;23.94;56.75;98641.59;5024470;28;20041;-52
2023/08/08 04:30:19;;;;;;;10.50;3.65;;;;;;;23.97;57.10;98665.16;5022582;28;20120;-50
2023/08/08 04:32:45;;;;;;;4.95;3.00;;;;;;;23.73;58.17;98670.41;5027251;28;20578;-49
2023/08/08 04:35:11;;;;;;;9.38;3.45;;;;;;;23.58;58.87;98672.00;5027176;28;20083;-50
2023/08/08 04:37:37;;;;;;;3.80;2.95;;;;;;;23.55;59.43;98665.19;5024436;28;20046;-47
2023/08/08 04:40:04;;;;;;;5.50;3.15;;;;;;;23.58;60.37;98672.00;5010337;28;20045;-51
2023/08/08 04:42:31;;;;;;;4.38;3.25;;;;;;;23.43;60.19;98666.44;5027062;28;20042;-49
2023/08/08 04:44:57;;;;;;;4.38;3.17;;;;;;;23.37;60.45;98675.03;5027007;28;20091;-51
2023/08/08 04:47:23;;;;;;;3.75;3.00;;;;;;;23.31;60.78;98667.69;5021925;28;20037;-53
2023/08/08 04:49:49;;;;;;;6.88;3.50;;;;;;;23.16;60.75;98646.25;5029861;28;20042;-50
2023/08/08 04:52:15;;;;;;;5.40;3.20;;;;;;;23.34;60.66;98664.75;5028761;28;20270;-45
2023/08/08 04:54:41;;;;;;;9.30;3.55;;;;;;;23.32;60.71;98669.38;5013578;28;20040;-47
2023/08/08 04:57:07;;;;;;;6.43;3.78;;;;;;;23.20;61.23;98675.91;5051981;28;20087;-48
2023/08/08 04:59:33;;;;;;;5.93;3.25;;;;;;;23.11;61.33;98659.16;5021973;28;20084;-49
2023/08/08 05:01:59;;;;;;;6.03;3.15;;;;;;;23.16;61.45;98663.97;5022976;28;20037;-51
2023/08/08 05:04:25;;;;;;;5.95;3.50;;;;;;;23.19;61.70;98672.44;5031279;28;20554;-48
2023/08/08 05:06:51;;;;;;;5.35;3.38;;;;;;;23.20;61.82;98674.09;5029869;28;20064;-47
2023/08/08 05:09:16;;;;;;;9.45;3.88;;;;;;;23.23;61.77;98662.38;5022821;28;20049;-49
2023/08/08 05:11:43;;;;;;;6.95;3.58;;;;;;;23.10;62.14;98646.03;5023659;28;20041;-48
2023/08/08 05:14:09;;;;;;;11.15;3.50;;;;;;;23.30;62.17;98678.47;5023761;28;20056;-48
2023/08/08 05:16:35;;;;;;;6.97;3.10;;;;;;;23.30;62.15;98681.13;5005843;28;20076;-47
2023/08/08 05:19:01;;;;;;;3.75;3.17;;;;;;;23.42;62.04;98690.47;5025852;28;20513;-46
2023/08/08 05:21:27;;;;;;;5.30;3.58;;;;;;;23.52;61.96;98702.66;5013326;28;20050;-52
2023/08/08 05:23:53;;;;;;;6.93;3.80;;;;;;;23.59;61.73;98705.53;5029688;28;20038;-51
2023/08/08 05:26:19;;;;;;;8.60;3.67;;;;;;;23.69;61.67;98700.91;5007994;28;20532;-52
2023/08/08 05:28:45;;;;;;;7.15;3.70;;;;;;;23.86;61.52;98693.84;5029470;28;20140;-54
2023/08/08 05:31:10;;;;;;;8.25;4.03;;;;;;;23.87;61.13;98660.97;5027715;28;20120;-53
2023/08/08 05:33:36;;;;;;;5.72;3.67;;;;;;;24.19;61.05;98682.34;5029120;28;20555;-53
2023/08/08 05:36:02;;;;;;;5.57;3.70;;;;;;;24.21;60.52;98692.81;5028129;28;20037;-50
2023/08/08 05:38:28;;;;;;;9.40;3.65;;;;;;;24.19;60.34;98697.44;5028680;28;20033;-52
2023/08/08 05:40:54;;;;;;;7.25;3.70;;;;;;;24.27;60.02;98684.19;5029382;28;20432;-50
2023/08/08 05:43:21;;;;;;;7.32;3.67;;;;;;;24.31;59.56;98690.84;5028560;28;20049;-52
2023/08/08 05:45:47;;;;;;;5.53;3.22;;;;;;;24.23;59.57;98698.81;5029373;28;20095;-52
2023/08/08 05:48:13;;;;;;;10.38;4.40;;;;;;;24.19;59.69;98694.78;5027195;28;20068;-53
2023/08/08 05:50:40;;;;;;;4.38;3.78;;;;;;;24.15;59.86;98694.25;5030584;28;20087;-52
2023/08/08 05:53:06;;;;;;;8.57;3.80;;;;;;;24.19;59.88;98687.66;5022843;28;20041;-53
2023/08/08 05:55:32;;;;;;;8.70;3.50;;;;;;;24.22;59.81;98690.00;5028429;28;20042;-51
2023/08/08 05:57:58;;;;;;;5.18;3.63;;;;;;;24.44;59.60;98681.38;5021814;28;20098;-50
2023/08/08 06:00:24;;;;;;;8.65;4.88;;;;;;;24.39;59.21;98673.06;5028743;28;20079;-49
2023/08/08 06:02:50;;;;;;;8.15;4.00;;;;;;;24.69;58.52;98684.91;5023191;28;20483;-52
2023/08/08 06:05:17;;;;;;;7.65;4.05;;;;;;;25.07;58.02;98685.25;5028766;28;20045;-53
2023/08/08 06:07:44;;;;;;;5.30;3.85;;;;;;;25.42;57.18;98700.78;5024726;28;20416;-51
2023/08/08 06:10:10;;;;;;;4.85;3.50;;;;;;;25.26;56.35;98669.72;5028871;28;20096;-52
2023/08/08 06:12:36;;;;;;;5.20;4.20;;;;;;;25.37;56.71;98688.97;5020001;28;20536;-53
2023/08/08 06:15:03;;;;;;;9.68;4.50;;;;;;;25.20;56.71;98683.69;5048163;28;20042;-49
2023/08/08 06:17:33;;;;;;;8.10;3.88;;;;;;;25.25;56.85;98692.00;5024536;28;20081;-52
2023/08/08 06:19:59;;;;;;;5.72;3.70;;;;;;;25.13;56.85;98669.41;5027282;28;20037;-50
2023/08/08 06:22:26;;;;;;;8.98;4.28;;;;;;;25.32;56.87;98697.47;5024226;28;20140;-48
2023/08/08 06:24:52;;;;;;;7.97;3.78;;;;;;;25.40;56.55;98683.31;5028637;28;20041;-47
2023/08/08 06:27:18;;;;;;;9.85;4.15;;;;;;;25.38;56.34;98693.31;5028454;28;20100;-48
2023/08/08 06:29:44;;;;;;;10.27;3.83;;;;;;;25.09;56.46;98677.91;5029758;28;20038;-50
2023/08/08 06:32:11;;;;;;;11.40;4.30;;;;;;;24.81;56.80;98675.56;5024625;28;20046;-53
2023/08/08 06:34:37;;;;;;;5.93;3.65;;;;;;;24.85;56.83;98692.88;5026215;28;20355;-51
2023/08/08 06:37:03;;;;;;;8.88;4.45;;;;;;;24.86;56.61;98677.75;5023901;28;20071;-48
2023/08/08 06:39:29;;;;;;;9.70;4.30;;;;;;;25.20;56.21;98697.00;4999156;28;20041;-47
2023/08/08 06:41:55;;;;;;;9.35;4.18;;;;;;;25.34;55.83;98695.47;5024571;28;20119;-47
2023/08/08 06:44:44;;;;;;;6.60;4.13;;;;;;;25.59;55.33;98702.41;5011423;28;20597;-50
2023/08/08 06:47:10;;;;;;;7.90;4.28;;;;;;;25.71;55.00;98697.53;5027498;28;20041;-52
2023/08/08 06:49:39;;;;;;;8.63;3.97;;;;;;;25.65;54.55;98671.59;5020674;28;20079;-50
2023/08/08 06:52:06;;;;;;;9.15;3.95;;;;;;;25.85;54.45;98690.69;5027979;28;20136;-51
2023/08/08 06:54:32;;;;;;;6.22;4.40;;;;;;;26.20;53.59;98692.81;4993955;28;20033;-52
2023/08/08 06:56:58;;;;;;;8.05;4.00;;;;;;;26.68;52.59;98694.34;5028917;28;20045;-55
2023/08/08 06:59:25;;;;;;;9.73;4.68;;;;;;;26.52;52.37;98697.13;5027838;28;20091;-52
2023/08/08 07:01:51;;;;;;;8.88;4.28;;;;;;;26.54;52.38;98693.25;5029154;28;20041;-47
2023/08/08 07:04:18;;;;;;;7.43;4.18;;;;;;;27.52;51.17;98703.09;5018200;28;20577;-50
2023/08/08 07:06:44;;;;;;;7.13;4.53;;;;;;;29.65;47.11;98710.19;5025678;28;20428;-51
2023/08/08 07:09:11;;;;;;;10.68;4.63;;;;;;;31.75;43.38;98708.88;5029099;28;20520;-49
2023/08/08 07:11:37;;;;;;;14.52;4.55;;;;;;;32.53;41.66;98714.94;5015661;28;20045;-49
2023/08/08 07:14:04;;;;;;;6.68;4.32;;;;;;;33.12;40.17;98718.03;5027691;28;20049;-54
2023/08/08 07:16:30;;;;;;;8.13;4.60;;;;;;;33.48;38.73;98722.72;5026464;28;20132;-49
2023/08/08 07:18:56;;;;;;;8.88;5.05;;;;;;;34.04;37.99;98724.38;5007174;28;20567;-52
2023/08/08 07:21:22;;;;;;;8.27;4.63;;;;;;;34.34;36.72;98729.81;5024275;28;20041;-54
2023/08/08 07:23:47;;;;;;;8.45;4.32;;;;;;;34.47;36.35;98697.25;5016941;28;20099;-47
2023/08/08 07:26:14;;;;;;;12.32;4.22;;;;;;;34.02;36.82;98719.19;5023751;28;20394;-51
2023/08/08 07:28:40;;;;;;;10.75;4.57;;;;;;;33.55;37.17;98723.44;5019131;28;20092;-52
2023/08/08 07:31:06;;;;;;;9.77;4.43;;;;;;;32.91;38.07;98715.75;5024364;28;20528;-49
2023/08/08 07:33:50;;;;;;;7.25;5.00;;;;;;;31.50;40.14;98722.16;5023701;28;20051;-53
2023/08/08 07:36:16;;;;;;;11.48;5.15;;;;;;;30.93;41.21;98712.06;5026012;28;20045;-50
2023/08/08 07:38:42;;;;;;;12.18;4.78;;;;;;;32.22;39.49;98711.19;5009101;28;20039;-49
2023/08/08 07:41:09;;;;;;;9.75;4.90;;;;;;;33.43;37.92;98719.84;5019243;28;20041;-51
2023/08/08 07:43:36;;;;;;;10.05;5.70;;;;;;;34.13;36.54;98714.91;5021259;28;20079;-48
2023/08/08 07:46:01;;;;;;;8.75;4.50;;;;;;;34.16;36.52;98717.16;5026359;28;20143;-49
2023/08/08 07:48:27;;;;;;;14.82;4.80;;;;;;;33.74;37.10;98728.88;5023650;28;20560;-51
2023/08/08 07:50:53;;;;;;;17.48;5.20;;;;;;;33.49;37.36;98729.75;5021406;28;20045;-50
2023/08/08 07:53:19;;;;;;;9.15;4.55;;;;;;;34.42;36.39;98727.63;5027646;28;20065;-51
2023/08/08 07:55:45;;;;;;;9.52;4.45;;;;;;;33.80;37.10;98731.53;5028391;28;20044;-47
2023/08/08 07:58:11;;;;;;;13.35;5.10;;;;;;;33.04;37.95;98729.09;5026953;28;20044;-51
2023/08/08 08:00:38;;;;;;;14.25;6.82;;;;;;;32.67;38.70;98727.28;5021390;28;20156;-48
2023/08/08 08:03:04;;;;;;;8.47;5.00;;;;;;;32.98;38.31;98729.13;5024815;28;20057;-49
2023/08/08 08:05:30;;;;;;;10.32;5.20;;;;;;;32.61;38.60;98728.13;5020039;28;20033;-50
2023/08/08 08:07:56;;;;;;;9.85;5.00;;;;;;;31.69;39.83;98726.69;5027171;28;20071;-52
2023/08/08 08:10:22;;;;;;;13.05;5.53;;;;;;;31.01;41.46;98725.25;5022149;28;20053;-49
2023/08/08 08:12:48;;;;;;;9.70;4.47;;;;;;;30.43;42.60;98691.94;5020264;28;20838;-56
2023/08/08 08:15:14;;;;;;;11.88;4.57;;;;;;;30.15;43.43;98708.16;5018540;28;20056;-49
2023/08/08 08:17:41;;;;;;;12.73;5.78;;;;;;;29.80;43.90;98712.72;5018912;28;20508;-51
2023/08/08 08:20:10;;;;;;;12.38;5.82;;;;;;;29.66;44.53;98708.34;5024387;28;20521;-49
2023/08/08 08:22:37;;;;;;;12.18;4.82;;;;;;;30.28;44.27;98727.81;5006770;28;20133;-52
2023/08/08 08:25:05;;;;;;;15.20;5.55;;;;;;;30.48;44.07;98729.72;5016198;28;20072;-52
2023/08/08 08:27:31;;;;;;;21.73;5.32;;;;;;;30.49;43.67;98734.06;5021206;28;20040;-47
2023/08/08 08:29:56;;;;;;;8.38;5.18;;;;;;;30.03;43.95;98731.22;5003071;28;20045;-50
2023/08/08 08:32:22;;;;;;;11.00;5.60;;;;;;;29.29;44.88;98696.13;5021281;28;20056;-49
2023/08/08 08:34:48;;;;;;;47.75;8.10;;;;;;;29.16;45.84;98749.56;5010445;28;20037;-50
2023/08/08 08:37:14;;;;;;;11.95;5.70;;;;;;;28.92;45.95;98727.56;5024036;28;20501;-53
2023/08/08 08:39:40;;;;;;;8.30;4.85;;;;;;;28.85;46.21;98734.69;5027684;28;20048;-48
2023/08/08 08:42:06;;;;;;;17.13;5.40;;;;;;;28.62;46.70;98720.69;5014353;28;20044;-49
2023/08/08 08:44:32;;;;;;;11.23;5.35;;;;;;;28.63;46.98;98746.38;5029121;28;20132;-44
2023/08/08 08:47:02;;;;;;;11.68;5.60;;;;;;;28.55;47.29;98742.00;5036514;28;20226;-51
2023/08/08 08:49:30;;;;;;;14.02;5.50;;;;;;;28.57;47.18;98752.53;5029271;28;20041;-50
2023/08/08 08:51:56;;;;;;;10.10;5.22;;;;;;;28.55;47.48;98755.38;5024401;28;20095;-49
2023/08/08 08:54:22;;;;;;;11.38;5.10;;;;;;;28.58;47.54;98754.16;5006807;28;20050;-48
2023/08/08 08:56:48;;;;;;;13.90;5.47;;;;;;;28.59;47.59;98753.13;5007324;28;20041;-52
2023/08/08 08:59:15;;;;;;;13.43;5.47;;;;;;;28.59;47.66;98759.31;5025024;28;20041;-50
2023/08/08 09:01:40;;;;;;;10.00;5.18;;;;;;;28.54;48.07;98753.72;5004228;28;20144;-49
2023/08/08 09:04:08;;;;;;;13.93;5.40;;;;;;;28.73;47.78;98765.69;5017348;28;21706;-49
2023/08/08 09:06:33;;;;;;;12.85;5.05;;;;;;;28.60;48.01;98762.81;5016095;28;20053;-48
2023/08/08 09:09:00;;;;;;;9.18;5.38;;;;;;;28.36;48.51;98747.97;5022384;28;20041;-49
2023/08/08 09:11:26;;;;;;;13.25;5.63;;;;;;;28.33;48.56;98720.75;5008401;28;20091;-49
2023/08/08 09:13:52;;;;;;;10.57;6.05;;;;;;;28.74;48.20;98755.78;5004209;28;20041;-52
2023/08/08 09:16:18;;;;;;;14.38;6.72;;;;;;;29.10;46.98;98736.97;5004265;28;20069;-50
2023/08/08 09:18:44;;;;;;;13.07;5.82;;;;;;;30.30;44.79;98739.13;5020572;28;20033;-47
2023/08/08 09:21:10;;;;;;;14.82;6.50;;;;;;;30.69;43.69;98721.53;5027061;28;20038;-52
2023/08/08 09:23:38;;;;;;;10.77;5.53;;;;;;;30.93;43.62;98761.19;5026210;28;20096;-54
2023/08/08 09:26:04;;;;;;;7.93;5.43;;;;;;;30.91;43.96;98763.25;5033544;28;20045;-48
2023/08/08 09:28:30;;;;;;;13.07;6.22;;;;;;;31.46;42.79;98767.41;5030228;28;20037;-52
2023/08/08 09:30:56;;;;;;;9.55;5.65;;;;;;;32.52;40.96;98734.81;5012581;28;20127;-49
2023/08/08 09:33:21;;;;;;;18.65;6.70;;;;;;;34.22;38.71;98766.75;5029652;28;20092;-50
2023/08/08 09:35:47;;;;;;;13.65;5.95;;;;;;;36.05;36.30;98773.81;5013036;28;20068;-49
2023/08/08 09:38:13;;;;;;;11.38;5.90;;;;;;;37.54;34.09;98781.69;5030516;28;20041;-54
2023/08/08 09:40:40;;;;;;;12.32;6.35;;;;;;;38.31;32.79;98778.97;5034030;28;20091;-48
2023/08/08 09:43:07;;;;;;;11.13;6.80;;;;;;;39.29;31.47;98778.63;5030524;28;20104;-49
2023/08/08 09:45:41;;;;;;;18.05;6.68;;;;;;;39.78;30.23;98771.09;5027801;28;20045;-49
2023/08/08 09:48:07;;;;;;;11.77;6.00;;;;;;;40.29;29.76;98784.16;5005992;28;20049;-52
2023/08/08 09:50:34;;;;;;;11.82;6.75;;;;;;;40.48;29.34;98788.84;5021043;28;20056;-51
2023/08/08 09:53:02;;;;;;;11.50;7.05;;;;;;;40.31;29.23;98776.53;5030250;28;20087;-49
2023/08/08 09:55:29;;;;;;;11.15;6.60;;;;;;;39.49;29.64;98758.09;5027587;28;20037;-50
2023/08/08 09:57:57;;;;;;;14.10;6.60;;;;;;;37.92;31.47;98780.91;5030424;28;20041;-54
2023/08/08 10:00:25;;;;;;;11.48;6.93;;;;;;;36.29;34.20;98776.47;5028833;28;20600;-50
2023/08/08 10:02:50;;;;;;;;;;;;;;;34.98;35.51;98772.31;5030763;28;20057;-47
2023/08/08 10:05:16;;;;;;;13.32;7.00;;;;;;;33.98;37.45;98777.34;4995000;28;19967;-48
2023/08/08 10:07:42;;;;;;;12.73;6.72;;;;;;;33.19;38.74;98783.50;5028794;28;20051;-51
2023/08/08 10:10:09;;;;;;;13.25;6.63;;;;;;;32.36;39.83;98741.53;5029001;28;20069;-51
2023/08/08 10:12:39;;;;;;;16.20;6.82;;;;;;;32.06;41.08;98770.81;5029866;28;20051;-48
2023/08/08 10:15:08;;;;;;;17.75;8.18;;;;;;;31.95;41.65;98768.78;5025434;28;20084;-57
2023/08/08 10:17:38;;;;;;;14.02;7.13;;;;;;;32.39;40.96;98776.09;5011404;28;20488;-53
2023/08/08 10:20:11;;;;;;;14.48;7.28;;;;;;;32.72;40.19;98775.94;5019018;28;20037;-50
2023/08/08 10:22:47;;;;;;;9.75;6.55;;;;;;;32.82;39.97;98780.84;5016784;28;20045;-49
2023/08/08 10:25:23;;;;;;;13.45;7.03;;;;;;;32.40;40.46;98744.63;5026948;28;20115;-46
2023/08/08 10:27:49;;;;;;;12.68;7.07;;;;;;;32.59;40.29;98775.97;5022300;28;20041;-47
2023/08/08 10:30:15;;;;;;;14.80;6.78;;;;;;;32.70;40.35;98783.41;5028434;28;20045;-51
2023/08/08 10:32:43;;;;;;;10.10;6.68;;;;;;;32.57;40.50;98783.44;5028560;28;20083;-47
2023/08/08 10:35:10;;;;;;;;;;;;;;;32.28;40.42;98790.22;5026386;28;20409;-50
2023/08/08 10:37:37;;;;;;;18.20;6.60;;;;;;;31.75;40.84;98762.63;5042783;28;19924;-49
2023/08/08 10:40:05;;;;;;;9.38;5.55;;;;;;;31.46;41.42;98772.78;4995865;28;20045;-52
2023/08/08 10:42:32;;;;;;;11.75;5.55;;;;;;;31.34;41.55;98795.13;5028069;28;20041;-47
2023/08/08 10:45:00;;;;;;;10.38;5.53;;;;;;;31.01;41.94;98778.97;5027214;28;20136;-47
2023/08/08 10:47:30;;;;;;;10.47;5.83;;;;;;;30.75;42.54;98798.53;5027923;28;20142;-46
2023/08/08 10:50:11;;;;;;;10.93;5.60;;;;;;;30.52;42.75;98801.56;5025884;28;20428;-50
2023/08/08 10:52:52;;;;;;;10.60;5.85;;;;;;;30.12;44.02;98807.78;5029357;28;20183;-50
2023/08/08 10:55:23;;;;;;;14.52;5.78;;;;;;;29.80;44.55;98814.56;5021651;28;20393;-50
2023/08/08 10:58:03;;;;;;;13.07;7.20;;;;;;;29.61;45.24;98813.41;5024325;28;20115;-48
2023/08/08 11:00:31;;;;;;;11.25;6.20;;;;;;;29.45;45.65;98813.72;5041065;28;20404;-51
2023/08/08 11:02:58;;;;;;;10.52;7.20;;;;;;;29.29;46.53;98819.31;5028107;28;20053;-49
2023/08/08 11:05:26;;;;;;;13.18;7.72;;;;;;;29.06;46.90;98793.56;5022795;28;20424;-49
2023/08/08 11:07:52;;;;;;;9.73;6.80;;;;;;;29.15;47.58;98812.19;5025649;28;20080;-52
2023/08/08 11:10:18;;;;;;;11.02;6.53;;;;;;;29.24;47.55;98825.25;5026878;28;20103;-52
2023/08/08 11:13:05;;;;;;;12.20;7.38;;;;;;;29.35;47.42;98819.41;5022761;28;20038;-51
2023/08/08 11:15:33;;;;;;;15.70;7.53;;;;;;;29.49;47.20;98817.66;5025550;28;20128;-50
2023/08/08 11:17:59;;;;;;;11.10;7.15;;;;;;;29.50;47.01;98795.19;5026671;28;20504;-50
2023/08/08 11:20:29;;;;;;;9.75;6.75;;;;;;;29.55;46.94;98776.69;5022738;28;20480;-52
2023/08/08 11:22:56;;;;;;;10.00;6.72;;;;;;;29.78;46.77;98804.03;5057491;28;20041;-50
2023/08/08 11:25:24;;;;;;;12.77;6.90;;;;;;;29.82;47.27;98818.72;5029035;28;20443;-50
2023/08/08 11:27:55;;;;;;;11.85;7.40;;;;;;;29.76;46.89;98814.13;5030396;28;20065;-50
2023/08/08 11:30:22;;;;;;;14.48;7.30;;;;;;;29.68;46.91;98813.44;4990983;28;20048;-52